sensor_id;sensor_type;location;lat;lon;timestamp;P1;durP1;ratioP1;P2;durP2;ratioP2
63018;SDS011;49105;46.046;10.760;2024-02-16T00:01:00;4.03;;;3.83;;
63018;SDS011;49105;46.046;10.760;2024-02-16T00:03:26;4.05;;;3.85;;
63018;SDS011;49105;46.046;10.760;2024-02-16T00:05:53;3.22;;;3.13;;
63018;SDS011;49105;46.046;10.760;2024-02-16T00:08:20;4.15;;;3.95;;
63018;SDS011;49105;46.046;10.760;2024-02-16T00:10:46;3.00;;;2.90;;
63018;SDS011;49105;46.046;10.760;2024-02-16T00:13:12;2.50;;;2.50;;
63018;SDS011;49105;46.046;10.760;2024-02-16T00:15:40;3.78;;;3.63;;
63018;SDS011;49105;46.046;10.760;2024-02-16T00:18:06;3.40;;;3.30;;
63018;SDS011;49105;46.046;10.760;2024-02-16T00:20:33;3.00;;;2.90;;
63018;SDS011;49105;46.046;10.760;2024-02-16T00:22:59;3.75;;;3.65;;
63018;SDS011;49105;46.046;10.760;2024-02-16T00:25:25;2.90;;;2.80;;
63018;SDS011;49105;46.046;10.760;2024-02-16T00:27:51;3.03;;;2.92;;
63018;SDS011;49105;46.046;10.760;2024-02-16T00:30:18;2.60;;;2.60;;
63018;SDS011;49105;46.046;10.760;2024-02-16T00:32:44;3.53;;;3.42;;
63018;SDS011;49105;46.046;10.760;2024-02-16T00:35:14;3.17;;;3.08;;
63018;SDS011;49105;46.046;10.760;2024-02-16T00:37:41;3.20;;;3.10;;
63018;SDS011;49105;46.046;10.760;2024-02-16T00:40:07;3.78;;;3.55;;
63018;SDS011;49105;46.046;10.760;2024-02-16T00:42:35;3.22;;;3.13;;
63018;SDS011;49105;46.046;10.760;2024-02-16T00:45:00;2.95;;;2.85;;
63018;SDS011;49105;46.046;10.760;2024-02-16T00:47:26;7.13;;;3.25;;
63018;SDS011;49105;46.046;10.760;2024-02-16T00:49:53;3.60;;;3.42;;
63018;SDS011;49105;46.046;10.760;2024-02-16T00:52:19;2.90;;;2.80;;
63018;SDS011;49105;46.046;10.760;2024-02-16T00:54:45;2.38;;;2.38;;
63018;SDS011;49105;46.046;10.760;2024-02-16T00:57:15;3.75;;;3.65;;
63018;SDS011;49105;46.046;10.760;2024-02-16T00:59:41;3.60;;;3.50;;
63018;SDS011;49105;46.046;10.760;2024-02-16T01:02:07;3.88;;;3.75;;
63018;SDS011;49105;46.046;10.760;2024-02-16T01:04:33;4.72;;;4.28;;
63018;SDS011;49105;46.046;10.760;2024-02-16T01:06:59;3.15;;;3.05;;
63018;SDS011;49105;46.046;10.760;2024-02-16T01:09:25;3.80;;;3.58;;
63018;SDS011;49105;46.046;10.760;2024-02-16T01:11:51;3.45;;;3.30;;
63018;SDS011;49105;46.046;10.760;2024-02-16T01:14:17;3.40;;;3.30;;
63018;SDS011;49105;46.046;10.760;2024-02-16T01:16:43;3.67;;;3.58;;
63018;SDS011;49105;46.046;10.760;2024-02-16T01:19:08;3.38;;;3.17;;
63018;SDS011;49105;46.046;10.760;2024-02-16T01:21:34;3.83;;;3.70;;
63018;SDS011;49105;46.046;10.760;2024-02-16T01:24:00;3.08;;;2.97;;
63018;SDS011;49105;46.046;10.760;2024-02-16T01:26:27;2.92;;;2.83;;
63018;SDS011;49105;46.046;10.760;2024-02-16T01:28:53;3.13;;;3.03;;
63018;SDS011;49105;46.046;10.760;2024-02-16T01:31:19;2.85;;;2.75;;
63018;SDS011;49105;46.046;10.760;2024-02-16T01:33:45;3.58;;;3.47;;
63018;SDS011;49105;46.046;10.760;2024-02-16T01:36:11;2.60;;;2.60;;
63018;SDS011;49105;46.046;10.760;2024-02-16T01:38:37;2.50;;;2.50;;
63018;SDS011;49105;46.046;10.760;2024-02-16T01:41:03;3.03;;;2.92;;
63018;SDS011;49105;46.046;10.760;2024-02-16T01:43:30;2.42;;;2.42;;
63018;SDS011;49105;46.046;10.760;2024-02-16T01:45:56;2.83;;;2.72;;
63018;SDS011;49105;46.046;10.760;2024-02-16T01:48:24;2.40;;;2.40;;
63018;SDS011;49105;46.046;10.760;2024-02-16T01:50:51;5.10;;;4.68;;
63018;SDS011;49105;46.046;10.760;2024-02-16T01:53:18;3.67;;;3.47;;
63018;SDS011;49105;46.046;10.760;2024-02-16T01:55:46;3.10;;;3.00;;
63018;SDS011;49105;46.046;10.760;2024-02-16T01:58:12;3.58;;;3.42;;
63018;SDS011;49105;46.046;10.760;2024-02-16T02:00:40;2.85;;;2.75;;
63018;SDS011;49105;46.046;10.760;2024-02-16T02:03:08;3.00;;;2.90;;
63018;SDS011;49105;46.046;10.760;2024-02-16T02:05:34;4.57;;;4.30;;
63018;SDS011;49105;46.046;10.760;2024-02-16T02:08:09;3.03;;;2.92;;
63018;SDS011;49105;46.046;10.760;2024-02-16T02:10:35;3.42;;;3.33;;
63018;SDS011;49105;46.046;10.760;2024-02-16T02:13:00;2.60;;;2.60;;
63018;SDS011;49105;46.046;10.760;2024-02-16T02:15:27;3.70;;;3.50;;
63018;SDS011;49105;46.046;10.760;2024-02-16T02:17:53;2.90;;;2.80;;
63018;SDS011;49105;46.046;10.760;2024-02-16T02:20:19;4.00;;;3.80;;
63018;SDS011;49105;46.046;10.760;2024-02-16T02:22:45;3.92;;;3.83;;
63018;SDS011;49105;46.046;10.760;2024-02-16T02:25:11;3.17;;;3.08;;
63018;SDS011;49105;46.046;10.760;2024-02-16T02:27:37;3.58;;;3.45;;
63018;SDS011;49105;46.046;10.760;2024-02-16T02:30:03;3.10;;;3.00;;
63018;SDS011;49105;46.046;10.760;2024-02-16T02:32:30;3.65;;;3.45;;
63018;SDS011;49105;46.046;10.760;2024-02-16T02:34:56;3.13;;;3.03;;
63018;SDS011;49105;46.046;10.760;2024-02-16T02:37:22;3.28;;;3.17;;
63018;SDS011;49105;46.046;10.760;2024-02-16T02:39:48;2.97;;;2.88;;
63018;SDS011;49105;46.046;10.760;2024-02-16T02:42:15;3.00;;;2.90;;
63018;SDS011;49105;46.046;10.760;2024-02-16T02:44:40;3.20;;;3.10;;
63018;SDS011;49105;46.046;10.760;2024-02-16T02:47:06;2.90;;;2.80;;
63018;SDS011;49105;46.046;10.760;2024-02-16T02:49:32;2.50;;;2.50;;
63018;SDS011;49105;46.046;10.760;2024-02-16T02:52:00;2.42;;;2.42;;
63018;SDS011;49105;46.046;10.760;2024-02-16T02:54:26;3.30;;;3.20;;
63018;SDS011;49105;46.046;10.760;2024-02-16T02:56:51;4.65;;;4.43;;
63018;SDS011;49105;46.046;10.760;2024-02-16T02:59:17;2.83;;;2.72;;
63018;SDS011;49105;46.046;10.760;2024-02-16T03:01:43;13.75;;;4.13;;
63018;SDS011;49105;46.046;10.760;2024-02-16T03:04:10;2.90;;;2.80;;
63018;SDS011;49105;46.046;10.760;2024-02-16T03:06:37;3.38;;;3.28;;
63018;SDS011;49105;46.046;10.760;2024-02-16T03:09:03;3.38;;;3.28;;
63018;SDS011;49105;46.046;10.760;2024-02-16T03:11:28;3.33;;;3.20;;
63018;SDS011;49105;46.046;10.760;2024-02-16T03:13:54;3.33;;;3.22;;
63018;SDS011;49105;46.046;10.760;2024-02-16T03:16:20;3.13;;;3.03;;
63018;SDS011;49105;46.046;10.760;2024-02-16T03:18:46;3.75;;;3.60;;
63018;SDS011;49105;46.046;10.760;2024-02-16T03:21:13;4.47;;;4.28;;
63018;SDS011;49105;46.046;10.760;2024-02-16T03:23:41;3.97;;;3.88;;
63018;SDS011;49105;46.046;10.760;2024-02-16T03:26:17;3.92;;;3.80;;
63018;SDS011;49105;46.046;10.760;2024-02-16T03:28:47;3.10;;;3.00;;
63018;SDS011;49105;46.046;10.760;2024-02-16T03:31:19;2.78;;;2.67;;
63018;SDS011;49105;46.046;10.760;2024-02-16T03:33:47;2.97;;;2.88;;
63018;SDS011;49105;46.046;10.760;2024-02-16T03:36:13;3.28;;;3.17;;
63018;SDS011;49105;46.046;10.760;2024-02-16T03:38:47;2.60;;;2.60;;
63018;SDS011;49105;46.046;10.760;2024-02-16T03:41:19;2.50;;;2.50;;
63018;SDS011;49105;46.046;10.760;2024-02-16T03:43:46;2.72;;;2.63;;
63018;SDS011;49105;46.046;10.760;2024-02-16T03:46:12;3.05;;;2.95;;
63018;SDS011;49105;46.046;10.760;2024-02-16T03:48:38;3.10;;;3.00;;
63018;SDS011;49105;46.046;10.760;2024-02-16T03:51:04;3.22;;;3.13;;
63018;SDS011;49105;46.046;10.760;2024-02-16T03:53:31;3.45;;;3.35;;
63018;SDS011;49105;46.046;10.760;2024-02-16T03:55:57;3.33;;;3.22;;
63018;SDS011;49105;46.046;10.760;2024-02-16T03:58:24;3.40;;;3.30;;
63018;SDS011;49105;46.046;10.760;2024-02-16T04:00:50;3.28;;;3.17;;
63018;SDS011;49105;46.046;10.760;2024-02-16T04:03:17;3.10;;;3.00;;
63018;SDS011;49105;46.046;10.760;2024-02-16T04:05:44;3.05;;;2.95;;
63018;SDS011;49105;46.046;10.760;2024-02-16T04:08:10;3.10;;;3.00;;
63018;SDS011;49105;46.046;10.760;2024-02-16T04:10:36;3.00;;;2.90;;
63018;SDS011;49105;46.046;10.760;2024-02-16T04:13:02;2.60;;;2.60;;
63018;SDS011;49105;46.046;10.760;2024-02-16T04:15:28;3.30;;;3.20;;
63018;SDS011;49105;46.046;10.760;2024-02-16T04:17:55;3.63;;;3.53;;
63018;SDS011;49105;46.046;10.760;2024-02-16T04:20:21;4.07;;;3.90;;
63018;SDS011;49105;46.046;10.760;2024-02-16T04:22:47;3.22;;;3.13;;
63018;SDS011;49105;46.046;10.760;2024-02-16T04:25:13;3.80;;;3.70;;
63018;SDS011;49105;46.046;10.760;2024-02-16T04:27:39;3.28;;;3.17;;
63018;SDS011;49105;46.046;10.760;2024-02-16T04:30:04;3.10;;;3.00;;
63018;SDS011;49105;46.046;10.760;2024-02-16T04:32:31;4.40;;;4.20;;
63018;SDS011;49105;46.046;10.760;2024-02-16T04:34:57;3.08;;;2.97;;
63018;SDS011;49105;46.046;10.760;2024-02-16T04:37:24;3.13;;;3.03;;
63018;SDS011;49105;46.046;10.760;2024-02-16T04:39:50;3.30;;;3.20;;
63018;SDS011;49105;46.046;10.760;2024-02-16T04:42:17;3.30;;;3.20;;
63018;SDS011;49105;46.046;10.760;2024-02-16T04:44:43;3.20;;;3.10;;
63018;SDS011;49105;46.046;10.760;2024-02-16T04:47:09;2.95;;;2.85;;
63018;SDS011;49105;46.046;10.760;2024-02-16T04:49:35;3.20;;;3.10;;
63018;SDS011;49105;46.046;10.760;2024-02-16T04:52:01;3.13;;;3.03;;
63018;SDS011;49105;46.046;10.760;2024-02-16T04:54:28;3.15;;;3.05;;
63018;SDS011;49105;46.046;10.760;2024-02-16T04:56:54;3.00;;;2.90;;
63018;SDS011;49105;46.046;10.760;2024-02-16T04:59:21;3.05;;;2.95;;
63018;SDS011;49105;46.046;10.760;2024-02-16T05:01:47;3.17;;;3.08;;
63018;SDS011;49105;46.046;10.760;2024-02-16T05:04:13;3.33;;;3.17;;
63018;SDS011;49105;46.046;10.760;2024-02-16T05:06:42;2.85;;;2.75;;
63018;SDS011;49105;46.046;10.760;2024-02-16T05:09:10;3.10;;;3.00;;
63018;SDS011;49105;46.046;10.760;2024-02-16T05:11:37;3.15;;;3.05;;
63018;SDS011;49105;46.046;10.760;2024-02-16T05:14:03;2.92;;;2.83;;
63018;SDS011;49105;46.046;10.760;2024-02-16T05:16:29;4.03;;;3.83;;
63018;SDS011;49105;46.046;10.760;2024-02-16T05:18:55;2.92;;;2.83;;
63018;SDS011;49105;46.046;10.760;2024-02-16T05:21:21;3.05;;;2.95;;
63018;SDS011;49105;46.046;10.760;2024-02-16T05:23:47;3.22;;;3.13;;
63018;SDS011;49105;46.046;10.760;2024-02-16T05:26:13;3.22;;;3.13;;
63018;SDS011;49105;46.046;10.760;2024-02-16T05:28:39;3.40;;;3.30;;
63018;SDS011;49105;46.046;10.760;2024-02-16T05:31:15;3.60;;;3.50;;
63018;SDS011;49105;46.046;10.760;2024-02-16T05:33:44;3.50;;;3.40;;
63018;SDS011;49105;46.046;10.760;2024-02-16T05:36:15;3.10;;;3.00;;
63018;SDS011;49105;46.046;10.760;2024-02-16T05:38:44;3.88;;;3.15;;
63018;SDS011;49105;46.046;10.760;2024-02-16T05:41:10;3.47;;;3.38;;
63018;SDS011;49105;46.046;10.760;2024-02-16T05:43:37;3.00;;;2.90;;
63018;SDS011;49105;46.046;10.760;2024-02-16T05:46:03;3.33;;;3.22;;
63018;SDS011;49105;46.046;10.760;2024-02-16T05:48:32;3.03;;;2.92;;
63018;SDS011;49105;46.046;10.760;2024-02-16T05:51:05;6.53;;;6.13;;
63018;SDS011;49105;46.046;10.760;2024-02-16T05:53:31;2.70;;;2.60;;
63018;SDS011;49105;46.046;10.760;2024-02-16T05:55:58;2.83;;;2.72;;
63018;SDS011;49105;46.046;10.760;2024-02-16T05:58:24;3.05;;;2.95;;
63018;SDS011;49105;46.046;10.760;2024-02-16T06:00:50;3.10;;;3.00;;
63018;SDS011;49105;46.046;10.760;2024-02-16T06:03:16;3.38;;;3.28;;
63018;SDS011;49105;46.046;10.760;2024-02-16T06:05:42;3.50;;;3.30;;
63018;SDS011;49105;46.046;10.760;2024-02-16T06:08:10;3.25;;;3.15;;
63018;SDS011;49105;46.046;10.760;2024-02-16T06:10:36;3.05;;;2.95;;
63018;SDS011;49105;46.046;10.760;2024-02-16T06:13:02;3.10;;;3.00;;
63018;SDS011;49105;46.046;10.760;2024-02-16T06:15:28;3.00;;;2.90;;
63018;SDS011;49105;46.046;10.760;2024-02-16T06:17:55;3.45;;;3.35;;
63018;SDS011;49105;46.046;10.760;2024-02-16T06:20:21;2.95;;;2.85;;
63018;SDS011;49105;46.046;10.760;2024-02-16T06:22:47;4.25;;;4.07;;
63018;SDS011;49105;46.046;10.760;2024-02-16T06:25:12;5.78;;;5.10;;
63018;SDS011;49105;46.046;10.760;2024-02-16T06:27:39;5.55;;;4.78;;
63018;SDS011;49105;46.046;10.760;2024-02-16T06:30:06;4.25;;;3.95;;
63018;SDS011;49105;46.046;10.760;2024-02-16T06:32:38;18.40;;;6.13;;
63018;SDS011;49105;46.046;10.760;2024-02-16T06:35:04;8.90;;;7.97;;
63018;SDS011;49105;46.046;10.760;2024-02-16T06:37:32;5.95;;;5.55;;
63018;SDS011;49105;46.046;10.760;2024-02-16T06:39:58;4.10;;;3.90;;
63018;SDS011;49105;46.046;10.760;2024-02-16T06:42:23;3.55;;;3.45;;
63018;SDS011;49105;46.046;10.760;2024-02-16T06:44:49;4.35;;;4.15;;
63018;SDS011;49105;46.046;10.760;2024-02-16T06:47:15;5.45;;;5.05;;
63018;SDS011;49105;46.046;10.760;2024-02-16T06:49:41;3.63;;;3.47;;
63018;SDS011;49105;46.046;10.760;2024-02-16T06:52:07;3.00;;;2.90;;
63018;SDS011;49105;46.046;10.760;2024-02-16T06:54:34;3.38;;;3.28;;
63018;SDS011;49105;46.046;10.760;2024-02-16T06:57:00;3.00;;;2.90;;
63018;SDS011;49105;46.046;10.760;2024-02-16T06:59:27;3.70;;;3.60;;
63018;SDS011;49105;46.046;10.760;2024-02-16T07:01:53;3.40;;;3.30;;
63018;SDS011;49105;46.046;10.760;2024-02-16T07:04:19;3.35;;;3.25;;
63018;SDS011;49105;46.046;10.760;2024-02-16T07:06:45;2.90;;;2.80;;
63018;SDS011;49105;46.046;10.760;2024-02-16T07:09:11;3.42;;;3.33;;
63018;SDS011;49105;46.046;10.760;2024-02-16T07:11:40;4.38;;;4.07;;
63018;SDS011;49105;46.046;10.760;2024-02-16T07:14:06;5.00;;;4.57;;
63018;SDS011;49105;46.046;10.760;2024-02-16T07:16:33;3.65;;;3.53;;
63018;SDS011;49105;46.046;10.760;2024-02-16T07:18:59;8.80;;;6.38;;
63018;SDS011;49105;46.046;10.760;2024-02-16T07:21:24;7.57;;;6.82;;
63018;SDS011;49105;46.046;10.760;2024-02-16T07:23:51;8.43;;;7.10;;
63018;SDS011;49105;46.046;10.760;2024-02-16T07:26:17;7.15;;;4.65;;
63018;SDS011;49105;46.046;10.760;2024-02-16T07:28:44;4.70;;;4.43;;
63018;SDS011;49105;46.046;10.760;2024-02-16T07:31:10;5.40;;;4.95;;
63018;SDS011;49105;46.046;10.760;2024-02-16T07:33:36;3.78;;;3.67;;
63018;SDS011;49105;46.046;10.760;2024-02-16T07:36:02;3.65;;;3.53;;
63018;SDS011;49105;46.046;10.760;2024-02-16T07:38:29;7.13;;;4.60;;
63018;SDS011;49105;46.046;10.760;2024-02-16T07:40:55;3.05;;;2.95;;
63018;SDS011;49105;46.046;10.760;2024-02-16T07:43:21;2.92;;;2.83;;
63018;SDS011;49105;46.046;10.760;2024-02-16T07:45:49;6.97;;;5.05;;
63018;SDS011;49105;46.046;10.760;2024-02-16T07:48:15;3.25;;;3.15;;
63018;SDS011;49105;46.046;10.760;2024-02-16T07:50:41;3.83;;;3.63;;
63018;SDS011;49105;46.046;10.760;2024-02-16T07:53:07;7.05;;;3.53;;
63018;SDS011;49105;46.046;10.760;2024-02-16T07:55:34;3.40;;;3.30;;
63018;SDS011;49105;46.046;10.760;2024-02-16T07:58:00;4.25;;;4.05;;
63018;SDS011;49105;46.046;10.760;2024-02-16T08:00:26;3.72;;;3.63;;
63018;SDS011;49105;46.046;10.760;2024-02-16T08:02:53;4.07;;;3.88;;
63018;SDS011;49105;46.046;10.760;2024-02-16T08:05:20;3.55;;;3.30;;
63018;SDS011;49105;46.046;10.760;2024-02-16T08:07:46;4.57;;;4.38;;
63018;SDS011;49105;46.046;10.760;2024-02-16T08:10:12;4.05;;;3.95;;
63018;SDS011;49105;46.046;10.760;2024-02-16T08:12:37;13.25;;;6.32;;
63018;SDS011;49105;46.046;10.760;2024-02-16T08:15:03;3.78;;;3.67;;
63018;SDS011;49105;46.046;10.760;2024-02-16T08:17:32;5.35;;;3.35;;
63018;SDS011;49105;46.046;10.760;2024-02-16T08:19:59;4.50;;;4.30;;
63018;SDS011;49105;46.046;10.760;2024-02-16T08:22:25;4.88;;;4.47;;
63018;SDS011;49105;46.046;10.760;2024-02-16T08:24:51;3.10;;;3.00;;
63018;SDS011;49105;46.046;10.760;2024-02-16T08:27:17;5.97;;;5.63;;
63018;SDS011;49105;46.046;10.760;2024-02-16T08:29:43;4.07;;;3.83;;
63018;SDS011;49105;46.046;10.760;2024-02-16T08:32:09;3.88;;;3.67;;
63018;SDS011;49105;46.046;10.760;2024-02-16T08:34:36;8.60;;;5.20;;
63018;SDS011;49105;46.046;10.760;2024-02-16T08:37:03;3.67;;;3.58;;
63018;SDS011;49105;46.046;10.760;2024-02-16T08:39:30;4.13;;;3.92;;
63018;SDS011;49105;46.046;10.760;2024-02-16T08:41:57;3.80;;;3.70;;
63018;SDS011;49105;46.046;10.760;2024-02-16T08:44:23;4.25;;;4.10;;
63018;SDS011;49105;46.046;10.760;2024-02-16T08:46:49;6.75;;;5.25;;
63018;SDS011;49105;46.046;10.760;2024-02-16T08:49:15;3.65;;;3.55;;
63018;SDS011;49105;46.046;10.760;2024-02-16T08:51:41;6.93;;;3.83;;
63018;SDS011;49105;46.046;10.760;2024-02-16T08:54:07;5.38;;;4.95;;
63018;SDS011;49105;46.046;10.760;2024-02-16T08:56:33;4.88;;;4.53;;
63018;SDS011;49105;46.046;10.760;2024-02-16T08:59:01;4.82;;;4.53;;
63018;SDS011;49105;46.046;10.760;2024-02-16T09:01:31;5.18;;;4.78;;
63018;SDS011;49105;46.046;10.760;2024-02-16T09:04:00;7.55;;;6.97;;
63018;SDS011;49105;46.046;10.760;2024-02-16T09:06:26;4.35;;;4.05;;
63018;SDS011;49105;46.046;10.760;2024-02-16T09:08:53;4.15;;;3.85;;
63018;SDS011;49105;46.046;10.760;2024-02-16T09:11:19;4.07;;;3.83;;
63018;SDS011;49105;46.046;10.760;2024-02-16T09:13:46;3.65;;;3.55;;
63018;SDS011;49105;46.046;10.760;2024-02-16T09:16:12;10.70;;;3.45;;
63018;SDS011;49105;46.046;10.760;2024-02-16T09:18:38;3.35;;;3.25;;
63018;SDS011;49105;46.046;10.760;2024-02-16T09:21:05;3.58;;;3.47;;
63018;SDS011;49105;46.046;10.760;2024-02-16T09:23:31;2.67;;;2.63;;
63018;SDS011;49105;46.046;10.760;2024-02-16T09:26:01;3.50;;;3.40;;
63018;SDS011;49105;46.046;10.760;2024-02-16T09:28:28;4.03;;;3.88;;
63018;SDS011;49105;46.046;10.760;2024-02-16T09:30:54;3.72;;;3.55;;
63018;SDS011;49105;46.046;10.760;2024-02-16T09:33:21;4.20;;;4.03;;
63018;SDS011;49105;46.046;10.760;2024-02-16T09:35:47;3.53;;;3.42;;
63018;SDS011;49105;46.046;10.760;2024-02-16T09:38:14;3.60;;;3.40;;
63018;SDS011;49105;46.046;10.760;2024-02-16T09:40:40;3.42;;;3.33;;
63018;SDS011;49105;46.046;10.760;2024-02-16T09:43:06;3.10;;;3.00;;
63018;SDS011;49105;46.046;10.760;2024-02-16T09:45:33;3.03;;;2.90;;
63018;SDS011;49105;46.046;10.760;2024-02-16T09:47:59;3.53;;;3.28;;
63018;SDS011;49105;46.046;10.760;2024-02-16T09:50:25;2.53;;;2.50;;
63018;SDS011;49105;46.046;10.760;2024-02-16T09:52:52;6.97;;;2.55;;
63018;SDS011;49105;46.046;10.760;2024-02-16T09:55:21;2.20;;;2.20;;
63018;SDS011;49105;46.046;10.760;2024-02-16T09:57:57;2.95;;;2.85;;
63018;SDS011;49105;46.046;10.760;2024-02-16T10:00:23;2.78;;;2.67;;
63018;SDS011;49105;46.046;10.760;2024-02-16T10:02:51;2.85;;;2.75;;
63018;SDS011;49105;46.046;10.760;2024-02-16T10:05:17;2.03;;;2.03;;
63018;SDS011;49105;46.046;10.760;2024-02-16T10:07:45;1.90;;;1.90;;
63018;SDS011;49105;46.046;10.760;2024-02-16T10:10:21;2.10;;;2.10;;
63018;SDS011;49105;46.046;10.760;2024-02-16T10:12:47;2.00;;;2.00;;
63018;SDS011;49105;46.046;10.760;2024-02-16T10:15:20;2.00;;;2.00;;
63018;SDS011;49105;46.046;10.760;2024-02-16T10:17:57;2.75;;;2.63;;
63018;SDS011;49105;46.046;10.760;2024-02-16T10:20:25;2.95;;;2.85;;
63018;SDS011;49105;46.046;10.760;2024-02-16T10:23:01;2.50;;;2.50;;
63018;SDS011;49105;46.046;10.760;2024-02-16T10:25:31;2.03;;;2.03;;
63018;SDS011;49105;46.046;10.760;2024-02-16T10:27:57;3.28;;;3.05;;
63018;SDS011;49105;46.046;10.760;2024-02-16T10:30:28;2.78;;;2.67;;
63018;SDS011;49105;46.046;10.760;2024-02-16T10:32:56;2.00;;;2.00;;
63018;SDS011;49105;46.046;10.760;2024-02-16T10:35:24;2.47;;;2.38;;
63018;SDS011;49105;46.046;10.760;2024-02-16T10:37:50;2.10;;;2.10;;
63018;SDS011;49105;46.046;10.760;2024-02-16T10:40:17;2.42;;;2.40;;
63018;SDS011;49105;46.046;10.760;2024-02-16T10:42:48;3.53;;;3.22;;
63018;SDS011;49105;46.046;10.760;2024-02-16T10:45:15;1.90;;;1.90;;
63018;SDS011;49105;46.046;10.760;2024-02-16T10:47:41;1.92;;;1.92;;
63018;SDS011;49105;46.046;10.760;2024-02-16T10:50:08;1.80;;;1.80;;
63018;SDS011;49105;46.046;10.760;2024-02-16T10:52:35;2.00;;;2.00;;
63018;SDS011;49105;46.046;10.760;2024-02-16T10:55:03;2.00;;;2.00;;
63018;SDS011;49105;46.046;10.760;2024-02-16T10:57:31;2.00;;;2.00;;
63018;SDS011;49105;46.046;10.760;2024-02-16T10:59:58;3.20;;;3.10;;
63018;SDS011;49105;46.046;10.760;2024-02-16T11:02:24;2.10;;;2.10;;
63018;SDS011;49105;46.046;10.760;2024-02-16T11:04:51;2.80;;;2.70;;
63018;SDS011;49105;46.046;10.760;2024-02-16T11:07:18;2.08;;;2.08;;
63018;SDS011;49105;46.046;10.760;2024-02-16T11:09:45;1.80;;;1.80;;
63018;SDS011;49105;46.046;10.760;2024-02-16T11:12:12;1.88;;;1.88;;
63018;SDS011;49105;46.046;10.760;2024-02-16T11:14:41;1.90;;;1.90;;
63018;SDS011;49105;46.046;10.760;2024-02-16T11:17:11;2.25;;;2.25;;
63018;SDS011;49105;46.046;10.760;2024-02-16T11:19:41;1.88;;;1.88;;
63018;SDS011;49105;46.046;10.760;2024-02-16T11:22:10;2.08;;;2.08;;
63018;SDS011;49105;46.046;10.760;2024-02-16T11:24:43;2.20;;;2.20;;
63018;SDS011;49105;46.046;10.760;2024-02-16T11:27:11;1.90;;;1.90;;
63018;SDS011;49105;46.046;10.760;2024-02-16T11:29:37;2.40;;;2.30;;
63018;SDS011;49105;46.046;10.760;2024-02-16T11:32:04;2.20;;;2.20;;
63018;SDS011;49105;46.046;10.760;2024-02-16T11:34:32;2.70;;;2.60;;
63018;SDS011;49105;46.046;10.760;2024-02-16T11:36:59;2.30;;;2.30;;
63018;SDS011;49105;46.046;10.760;2024-02-16T11:39:27;2.10;;;2.10;;
63018;SDS011;49105;46.046;10.760;2024-02-16T11:44:35;1.90;;;1.90;;
63018;SDS011;49105;46.046;10.760;2024-02-16T11:47:02;2.17;;;2.08;;
63018;SDS011;49105;46.046;10.760;2024-02-16T11:49:28;2.22;;;2.22;;
63018;SDS011;49105;46.046;10.760;2024-02-16T11:51:55;2.00;;;2.00;;
63018;SDS011;49105;46.046;10.760;2024-02-16T11:54:21;2.08;;;2.08;;
63018;SDS011;49105;46.046;10.760;2024-02-16T11:56:47;1.90;;;1.90;;
63018;SDS011;49105;46.046;10.760;2024-02-16T11:59:16;2.33;;;2.33;;
63018;SDS011;49105;46.046;10.760;2024-02-16T12:01:50;1.90;;;1.90;;
63018;SDS011;49105;46.046;10.760;2024-02-16T12:04:23;1.70;;;1.70;;
63018;SDS011;49105;46.046;10.760;2024-02-16T12:06:56;1.80;;;1.80;;
63018;SDS011;49105;46.046;10.760;2024-02-16T12:09:23;1.80;;;1.80;;
63018;SDS011;49105;46.046;10.760;2024-02-16T12:11:49;2.00;;;2.00;;
63018;SDS011;49105;46.046;10.760;2024-02-16T12:14:18;1.90;;;1.90;;
63018;SDS011;49105;46.046;10.760;2024-02-16T12:16:55;2.00;;;2.00;;
63018;SDS011;49105;46.046;10.760;2024-02-16T12:19:23;2.08;;;2.08;;
63018;SDS011;49105;46.046;10.760;2024-02-16T12:21:50;2.72;;;2.53;;
63018;SDS011;49105;46.046;10.760;2024-02-16T12:24:17;1.80;;;1.80;;
63018;SDS011;49105;46.046;10.760;2024-02-16T12:26:43;2.40;;;2.28;;
63018;SDS011;49105;46.046;10.760;2024-02-16T12:29:09;1.98;;;1.98;;
63018;SDS011;49105;46.046;10.760;2024-02-16T12:31:38;3.60;;;3.33;;
63018;SDS011;49105;46.046;10.760;2024-02-16T12:34:07;4.10;;;3.90;;
63018;SDS011;49105;46.046;10.760;2024-02-16T12:36:36;3.30;;;3.20;;
63018;SDS011;49105;46.046;10.760;2024-02-16T12:39:02;2.67;;;2.58;;
63018;SDS011;49105;46.046;10.760;2024-02-16T12:41:31;2.30;;;2.30;;
63018;SDS011;49105;46.046;10.760;2024-02-16T12:43:58;2.10;;;2.10;;
63018;SDS011;49105;46.046;10.760;2024-02-16T12:46:23;2.53;;;2.53;;
63018;SDS011;49105;46.046;10.760;2024-02-16T12:48:49;2.83;;;2.72;;
63018;SDS011;49105;46.046;10.760;2024-02-16T12:51:16;1.90;;;1.90;;
63018;SDS011;49105;46.046;10.760;2024-02-16T12:53:41;2.00;;;2.00;;
63018;SDS011;49105;46.046;10.760;2024-02-16T12:56:08;2.35;;;2.35;;
63018;SDS011;49105;46.046;10.760;2024-02-16T12:58:34;1.83;;;1.83;;
63018;SDS011;49105;46.046;10.760;2024-02-16T13:01:02;2.00;;;2.00;;
63018;SDS011;49105;46.046;10.760;2024-02-16T13:03:30;2.00;;;2.00;;
63018;SDS011;49105;46.046;10.760;2024-02-16T13:06:00;1.90;;;1.90;;
63018;SDS011;49105;46.046;10.760;2024-02-16T13:08:26;1.80;;;1.80;;
63018;SDS011;49105;46.046;10.760;2024-02-16T13:10:51;2.25;;;2.25;;
63018;SDS011;49105;46.046;10.760;2024-02-16T13:13:17;1.90;;;1.90;;
63018;SDS011;49105;46.046;10.760;2024-02-16T13:15:44;2.10;;;2.10;;
63018;SDS011;49105;46.046;10.760;2024-02-16T13:18:10;2.10;;;2.10;;
63018;SDS011;49105;46.046;10.760;2024-02-16T13:20:37;1.92;;;1.92;;
63018;SDS011;49105;46.046;10.760;2024-02-16T13:23:04;3.13;;;2.88;;
63018;SDS011;49105;46.046;10.760;2024-02-16T13:25:30;1.90;;;1.90;;
63018;SDS011;49105;46.046;10.760;2024-02-16T13:27:55;1.95;;;1.95;;
63018;SDS011;49105;46.046;10.760;2024-02-16T13:30:22;2.53;;;2.42;;
63018;SDS011;49105;46.046;10.760;2024-02-16T13:32:47;1.95;;;1.95;;
63018;SDS011;49105;46.046;10.760;2024-02-16T13:35:13;2.20;;;2.00;;
63018;SDS011;49105;46.046;10.760;2024-02-16T13:37:39;2.10;;;2.10;;
63018;SDS011;49105;46.046;10.760;2024-02-16T13:40:06;1.92;;;1.92;;
63018;SDS011;49105;46.046;10.760;2024-02-16T13:42:36;2.15;;;2.15;;
63018;SDS011;49105;46.046;10.760;2024-02-16T13:45:05;2.30;;;2.30;;
63018;SDS011;49105;46.046;10.760;2024-02-16T13:47:31;2.50;;;2.40;;
63018;SDS011;49105;46.046;10.760;2024-02-16T13:49:58;2.55;;;2.45;;
63018;SDS011;49105;46.046;10.760;2024-02-16T13:52:24;2.20;;;2.20;;
63018;SDS011;49105;46.046;10.760;2024-02-16T13:54:51;1.85;;;1.85;;
63018;SDS011;49105;46.046;10.760;2024-02-16T13:57:18;3.03;;;2.92;;
63018;SDS011;49105;46.046;10.760;2024-02-16T13:59:45;3.40;;;3.20;;
63018;SDS011;49105;46.046;10.760;2024-02-16T14:02:11;2.00;;;2.00;;
63018;SDS011;49105;46.046;10.760;2024-02-16T14:04:37;3.03;;;2.75;;
63018;SDS011;49105;46.046;10.760;2024-02-16T14:07:04;2.05;;;2.05;;
63018;SDS011;49105;46.046;10.760;2024-02-16T14:09:30;2.00;;;1.95;;
63018;SDS011;49105;46.046;10.760;2024-02-16T14:11:56;2.10;;;2.10;;
63018;SDS011;49105;46.046;10.760;2024-02-16T14:14:24;1.90;;;1.90;;
63018;SDS011;49105;46.046;10.760;2024-02-16T14:16:50;2.20;;;2.20;;
63018;SDS011;49105;46.046;10.760;2024-02-16T14:19:16;2.00;;;2.00;;
63018;SDS011;49105;46.046;10.760;2024-02-16T14:21:45;2.38;;;2.38;;
63018;SDS011;49105;46.046;10.760;2024-02-16T14:24:12;1.92;;;1.92;;
63018;SDS011;49105;46.046;10.760;2024-02-16T14:26:38;1.90;;;1.90;;
63018;SDS011;49105;46.046;10.760;2024-02-16T14:29:05;2.20;;;2.20;;
63018;SDS011;49105;46.046;10.760;2024-02-16T14:31:31;1.80;;;1.80;;
63018;SDS011;49105;46.046;10.760;2024-02-16T14:33:58;1.80;;;1.80;;